sensor_id;sensor_type;location;lat;lon;timestamp;temperature;humidity
59128;DHT22;44912;52.754;5.994;2023-05-10T00:01:43;13.00;99.90
59128;DHT22;44912;52.754;5.994;2023-05-10T00:04:09;13.00;99.90
59128;DHT22;44912;52.754;5.994;2023-05-10T00:06:34;13.00;99.90
59128;DHT22;44912;52.754;5.994;2023-05-10T00:09:00;13.00;99.90
59128;DHT22;44912;52.754;5.994;2023-05-10T00:11:25;13.00;99.90
59128;DHT22;44912;52.754;5.994;2023-05-10T00:13:51;13.00;99.90
59128;DHT22;44912;52.754;5.994;2023-05-10T00:16:16;13.00;99.90
59128;DHT22;44912;52.754;5.994;2023-05-10T00:18:42;13.00;99.90
59128;DHT22;44912;52.754;5.994;2023-05-10T00:21:07;13.00;99.90
59128;DHT22;44912;52.754;5.994;2023-05-10T00:23:33;13.00;99.90
59128;DHT22;44912;52.754;5.994;2023-05-10T00:25:58;13.00;99.90
59128;DHT22;44912;52.754;5.994;2023-05-10T00:28:24;13.00;99.90
59128;DHT22;44912;52.754;5.994;2023-05-10T00:30:50;12.90;99.90
59128;DHT22;44912;52.754;5.994;2023-05-10T00:33:15;12.90;99.90
59128;DHT22;44912;52.754;5.994;2023-05-10T00:35:41;12.90;99.90
59128;DHT22;44912;52.754;5.994;2023-05-10T00:38:06;12.90;99.90
59128;DHT22;44912;52.754;5.994;2023-05-10T00:40:32;12.90;99.90
59128;DHT22;44912;52.754;5.994;2023-05-10T00:42:58;12.90;99.90
59128;DHT22;44912;52.754;5.994;2023-05-10T00:45:25;12.90;99.90
59128;DHT22;44912;52.754;5.994;2023-05-10T00:47:51;12.90;99.90
59128;DHT22;44912;52.754;5.994;2023-05-10T00:50:21;12.80;99.90
59128;DHT22;44912;52.754;5.994;2023-05-10T00:52:47;12.80;99.90
59128;DHT22;44912;52.754;5.994;2023-05-10T00:55:12;12.80;99.90
59128;DHT22;44912;52.754;5.994;2023-05-10T00:57:38;12.80;99.90
59128;DHT22;44912;52.754;5.994;2023-05-10T01:00:05;12.80;99.90
59128;DHT22;44912;52.754;5.994;2023-05-10T01:02:30;12.70;99.90
59128;DHT22;44912;52.754;5.994;2023-05-10T01:04:56;12.70;99.90
59128;DHT22;44912;52.754;5.994;2023-05-10T01:07:21;12.70;99.90
59128;DHT22;44912;52.754;5.994;2023-05-10T01:09:47;12.70;99.90
59128;DHT22;44912;52.754;5.994;2023-05-10T01:12:13;12.70;99.90
59128;DHT22;44912;52.754;5.994;2023-05-10T01:14:39;12.70;99.90
59128;DHT22;44912;52.754;5.994;2023-05-10T01:17:06;12.70;99.90
59128;DHT22;44912;52.754;5.994;2023-05-10T01:19:34;12.70;99.90
59128;DHT22;44912;52.754;5.994;2023-05-10T01:33:34;12.60;99.90
59128;DHT22;44912;52.754;5.994;2023-05-10T01:36:22;12.60;99.90
59128;DHT22;44912;52.754;5.994;2023-05-10T01:39:17;12.70;99.90
59128;DHT22;44912;52.754;5.994;2023-05-10T01:41:48;12.70;99.90
59128;DHT22;44912;52.754;5.994;2023-05-10T01:44:31;12.60;99.90
59128;DHT22;44912;52.754;5.994;2023-05-10T01:47:12;12.60;99.90
59128;DHT22;44912;52.754;5.994;2023-05-10T01:49:50;12.60;99.90
59128;DHT22;44912;52.754;5.994;2023-05-10T01:52:18;12.60;99.90
59128;DHT22;44912;52.754;5.994;2023-05-10T01:54:50;12.60;99.90
59128;DHT22;44912;52.754;5.994;2023-05-10T01:57:20;12.50;99.90
59128;DHT22;44912;52.754;5.994;2023-05-10T01:59:49;12.60;99.90
59128;DHT22;44912;52.754;5.994;2023-05-10T02:02:17;12.60;99.90
59128;DHT22;44912;52.754;5.994;2023-05-10T02:04:45;12.60;99.90
59128;DHT22;44912;52.754;5.994;2023-05-10T02:07:12;12.60;99.90
59128;DHT22;44912;52.754;5.994;2023-05-10T02:09:38;12.60;99.90
59128;DHT22;44912;52.754;5.994;2023-05-10T02:12:05;12.60;99.90
59128;DHT22;44912;52.754;5.994;2023-05-10T02:14:34;12.60;99.90
59128;DHT22;44912;52.754;5.994;2023-05-10T02:17:02;12.50;99.90
59128;DHT22;44912;52.754;5.994;2023-05-10T02:19:30;12.60;99.90
59128;DHT22;44912;52.754;5.994;2023-05-10T02:21:57;12.60;99.90
59128;DHT22;44912;52.754;5.994;2023-05-10T02:24:24;12.60;99.90
59128;DHT22;44912;52.754;5.994;2023-05-10T02:26:51;12.60;99.90
59128;DHT22;44912;52.754;5.994;2023-05-10T02:29:19;12.60;99.90
59128;DHT22;44912;52.754;5.994;2023-05-10T02:31:45;12.60;99.90
59128;DHT22;44912;52.754;5.994;2023-05-10T02:34:12;12.60;99.90
59128;DHT22;44912;52.754;5.994;2023-05-10T02:36:39;12.60;99.90
59128;DHT22;44912;52.754;5.994;2023-05-10T02:39:06;12.60;99.90
59128;DHT22;44912;52.754;5.994;2023-05-10T02:41:35;12.60;99.90
59128;DHT22;44912;52.754;5.994;2023-05-10T02:44:02;12.60;99.90
59128;DHT22;44912;52.754;5.994;2023-05-10T02:46:28;12.60;99.90
59128;DHT22;44912;52.754;5.994;2023-05-10T02:48:54;12.70;99.90
59128;DHT22;44912;52.754;5.994;2023-05-10T02:51:28;12.70;99.90
59128;DHT22;44912;52.754;5.994;2023-05-10T02:53:57;12.70;99.90
59128;DHT22;44912;52.754;5.994;2023-05-10T02:56:31;12.70;99.90
59128;DHT22;44912;52.754;5.994;2023-05-10T02:58:58;12.70;99.90
59128;DHT22;44912;52.754;5.994;2023-05-10T03:01:23;12.80;99.90
59128;DHT22;44912;52.754;5.994;2023-05-10T03:03:49;12.70;99.90
59128;DHT22;44912;52.754;5.994;2023-05-10T03:06:14;12.80;99.90
59128;DHT22;44912;52.754;5.994;2023-05-10T03:08:42;12.80;99.90
59128;DHT22;44912;52.754;5.994;2023-05-10T03:11:28;12.80;99.90
59128;DHT22;44912;52.754;5.994;2023-05-10T03:14:21;12.70;99.90
59128;DHT22;44912;52.754;5.994;2023-05-10T03:16:58;12.70;99.90
59128;DHT22;44912;52.754;5.994;2023-05-10T03:19:52;12.70;99.90
59128;DHT22;44912;52.754;5.994;2023-05-10T03:22:34;12.70;99.90
59128;DHT22;44912;52.754;5.994;2023-05-10T03:25:05;12.70;99.90
59128;DHT22;44912;52.754;5.994;2023-05-10T03:27:31;12.70;99.90
59128;DHT22;44912;52.754;5.994;2023-05-10T03:29:57;12.70;99.90
59128;DHT22;44912;52.754;5.994;2023-05-10T03:32:23;12.70;99.90
59128;DHT22;44912;52.754;5.994;2023-05-10T03:34:49;12.70;99.90
59128;DHT22;44912;52.754;5.994;2023-05-10T03:37:14;12.70;99.90
59128;DHT22;44912;52.754;5.994;2023-05-10T03:39:40;12.70;99.90
59128;DHT22;44912;52.754;5.994;2023-05-10T03:42:06;12.70;99.90
59128;DHT22;44912;52.754;5.994;2023-05-10T03:44:31;12.70;99.90
59128;DHT22;44912;52.754;5.994;2023-05-10T03:46:58;12.70;99.90
59128;DHT22;44912;52.754;5.994;2023-05-10T03:49:24;12.70;99.90
59128;DHT22;44912;52.754;5.994;2023-05-10T03:51:49;12.70;99.90
59128;DHT22;44912;52.754;5.994;2023-05-10T03:54:15;12.70;99.90
59128;DHT22;44912;52.754;5.994;2023-05-10T03:56:40;12.60;99.90
59128;DHT22;44912;52.754;5.994;2023-05-10T03:59:06;12.60;99.90
59128;DHT22;44912;52.754;5.994;2023-05-10T04:01:34;12.60;99.90
59128;DHT22;44912;52.754;5.994;2023-05-10T04:04:00;12.60;99.90
59128;DHT22;44912;52.754;5.994;2023-05-10T04:06:26;12.60;99.90
59128;DHT22;44912;52.754;5.994;2023-05-10T04:08:51;12.60;99.90
59128;DHT22;44912;52.754;5.994;2023-05-10T04:11:17;12.60;99.90
59128;DHT22;44912;52.754;5.994;2023-05-10T04:13:42;12.60;99.90
59128;DHT22;44912;52.754;5.994;2023-05-10T04:16:08;12.60;99.90
59128;DHT22;44912;52.754;5.994;2023-05-10T04:18:34;12.60;99.90
59128;DHT22;44912;52.754;5.994;2023-05-10T04:21:00;12.60;99.90
59128;DHT22;44912;52.754;5.994;2023-05-10T04:23:26;12.60;99.90
59128;DHT22;44912;52.754;5.994;2023-05-10T04:25:52;12.60;99.90
59128;DHT22;44912;52.754;5.994;2023-05-10T04:28:17;12.60;99.90
59128;DHT22;44912;52.754;5.994;2023-05-10T04:30:43;12.50;99.90
59128;DHT22;44912;52.754;5.994;2023-05-10T04:33:09;12.50;99.90
59128;DHT22;44912;52.754;5.994;2023-05-10T04:35:35;12.60;99.90
59128;DHT22;44912;52.754;5.994;2023-05-10T04:38:00;12.60;99.90
59128;DHT22;44912;52.754;5.994;2023-05-10T04:40:26;12.60;99.90
59128;DHT22;44912;52.754;5.994;2023-05-10T04:42:51;12.50;99.90
59128;DHT22;44912;52.754;5.994;2023-05-10T04:45:17;12.60;99.90
59128;DHT22;44912;52.754;5.994;2023-05-10T04:47:42;12.60;99.90
59128;DHT22;44912;52.754;5.994;2023-05-10T04:50:08;12.60;99.90
59128;DHT22;44912;52.754;5.994;2023-05-10T04:52:34;12.60;99.90
59128;DHT22;44912;52.754;5.994;2023-05-10T04:54:59;12.60;99.90
59128;DHT22;44912;52.754;5.994;2023-05-10T04:57:25;12.60;99.90
59128;DHT22;44912;52.754;5.994;2023-05-10T04:59:51;12.60;99.90
59128;DHT22;44912;52.754;5.994;2023-05-10T05:02:16;12.60;99.90
59128;DHT22;44912;52.754;5.994;2023-05-10T05:04:42;12.60;99.90
59128;DHT22;44912;52.754;5.994;2023-05-10T05:07:07;12.60;99.90
59128;DHT22;44912;52.754;5.994;2023-05-10T05:09:33;12.60;99.90
59128;DHT22;44912;52.754;5.994;2023-05-10T05:11:58;12.60;99.90
59128;DHT22;44912;52.754;5.994;2023-05-10T05:14:24;12.60;99.90
59128;DHT22;44912;52.754;5.994;2023-05-10T05:16:53;12.60;99.90
59128;DHT22;44912;52.754;5.994;2023-05-10T05:19:18;12.60;99.90
59128;DHT22;44912;52.754;5.994;2023-05-10T05:21:44;12.60;99.90
59128;DHT22;44912;52.754;5.994;2023-05-10T05:24:10;12.60;99.90
59128;DHT22;44912;52.754;5.994;2023-05-10T05:26:36;12.60;99.90
59128;DHT22;44912;52.754;5.994;2023-05-10T05:29:02;12.50;99.90
59128;DHT22;44912;52.754;5.994;2023-05-10T05:31:28;12.60;99.90
59128;DHT22;44912;52.754;5.994;2023-05-10T05:33:54;12.60;99.90
59128;DHT22;44912;52.754;5.994;2023-05-10T05:36:19;12.60;99.90
59128;DHT22;44912;52.754;5.994;2023-05-10T05:38:45;12.60;99.90
59128;DHT22;44912;52.754;5.994;2023-05-10T05:41:10;12.60;99.90
59128;DHT22;44912;52.754;5.994;2023-05-10T05:43:36;12.60;99.90
59128;DHT22;44912;52.754;5.994;2023-05-10T05:46:01;12.60;99.90
59128;DHT22;44912;52.754;5.994;2023-05-10T05:48:27;12.60;99.90
59128;DHT22;44912;52.754;5.994;2023-05-10T05:50:55;12.60;99.90
59128;DHT22;44912;52.754;5.994;2023-05-10T05:53:22;12.60;99.90
59128;DHT22;44912;52.754;5.994;2023-05-10T05:55:58;12.60;99.90
59128;DHT22;44912;52.754;5.994;2023-05-10T05:58:24;12.60;99.90
59128;DHT22;44912;52.754;5.994;2023-05-10T06:00:50;12.60;99.90
59128;DHT22;44912;52.754;5.994;2023-05-10T06:03:17;12.60;99.90
59128;DHT22;44912;52.754;5.994;2023-05-10T06:05:43;12.60;99.90
59128;DHT22;44912;52.754;5.994;2023-05-10T06:08:08;12.70;99.90
59128;DHT22;44912;52.754;5.994;2023-05-10T06:10:34;12.70;99.90
59128;DHT22;44912;52.754;5.994;2023-05-10T06:12:59;12.70;99.90
59128;DHT22;44912;52.754;5.994;2023-05-10T06:15:25;12.70;99.90
59128;DHT22;44912;52.754;5.994;2023-05-10T06:17:51;12.60;99.90
59128;DHT22;44912;52.754;5.994;2023-05-10T06:20:17;12.60;99.90
59128;DHT22;44912;52.754;5.994;2023-05-10T06:22:42;12.60;99.90
59128;DHT22;44912;52.754;5.994;2023-05-10T06:25:08;12.60;99.90
59128;DHT22;44912;52.754;5.994;2023-05-10T06:27:34;12.60;99.90
59128;DHT22;44912;52.754;5.994;2023-05-10T06:30:00;12.70;99.90
59128;DHT22;44912;52.754;5.994;2023-05-10T06:32:25;12.60;99.90
59128;DHT22;44912;52.754;5.994;2023-05-10T06:34:51;12.70;99.90
59128;DHT22;44912;52.754;5.994;2023-05-10T06:37:16;12.60;99.90
59128;DHT22;44912;52.754;5.994;2023-05-10T06:39:42;12.70;99.90
59128;DHT22;44912;52.754;5.994;2023-05-10T06:42:07;12.70;99.90
59128;DHT22;44912;52.754;5.994;2023-05-10T06:44:33;12.70;99.90
59128;DHT22;44912;52.754;5.994;2023-05-10T06:46:58;12.70;99.90
59128;DHT22;44912;52.754;5.994;2023-05-10T06:49:24;12.70;99.90
59128;DHT22;44912;52.754;5.994;2023-05-10T06:51:50;12.70;99.90
59128;DHT22;44912;52.754;5.994;2023-05-10T06:54:15;12.70;99.90
59128;DHT22;44912;52.754;5.994;2023-05-10T06:56:41;12.70;99.90
59128;DHT22;44912;52.754;5.994;2023-05-10T06:59:06;12.70;99.90
59128;DHT22;44912;52.754;5.994;2023-05-10T07:01:32;12.70;99.90
59128;DHT22;44912;52.754;5.994;2023-05-10T07:03:58;12.70;99.90
59128;DHT22;44912;52.754;5.994;2023-05-10T07:06:23;12.70;99.90
59128;DHT22;44912;52.754;5.994;2023-05-10T07:08:49;12.70;99.90
59128;DHT22;44912;52.754;5.994;2023-05-10T07:11:14;12.80;99.90
59128;DHT22;44912;52.754;5.994;2023-05-10T07:13:40;12.80;99.90
59128;DHT22;44912;52.754;5.994;2023-05-10T07:16:09;12.70;99.90
59128;DHT22;44912;52.754;5.994;2023-05-10T07:18:35;12.70;99.90
59128;DHT22;44912;52.754;5.994;2023-05-10T07:21:00;12.80;99.90
59128;DHT22;44912;52.754;5.994;2023-05-10T07:23:26;12.80;99.90
59128;DHT22;44912;52.754;5.994;2023-05-10T07:25:52;12.80;99.90
59128;DHT22;44912;52.754;5.994;2023-05-10T07:28:18;12.90;99.90
59128;DHT22;44912;52.754;5.994;2023-05-10T07:30:44;13.00;99.90
59128;DHT22;44912;52.754;5.994;2023-05-10T07:33:12;13.10;99.90
59128;DHT22;44912;52.754;5.994;2023-05-10T07:35:38;13.10;99.90
59128;DHT22;44912;52.754;5.994;2023-05-10T07:38:03;13.10;99.90
59128;DHT22;44912;52.754;5.994;2023-05-10T07:40:29;13.10;99.90
59128;DHT22;44912;52.754;5.994;2023-05-10T07:42:55;13.20;99.90
59128;DHT22;44912;52.754;5.994;2023-05-10T07:45:21;13.20;99.90
59128;DHT22;44912;52.754;5.994;2023-05-10T07:47:46;13.30;99.90
59128;DHT22;44912;52.754;5.994;2023-05-10T07:50:12;13.40;99.90
59128;DHT22;44912;52.754;5.994;2023-05-10T07:52:37;13.50;99.90
59128;DHT22;44912;52.754;5.994;2023-05-10T07:55:03;13.50;99.90
59128;DHT22;44912;52.754;5.994;2023-05-10T07:57:29;13.50;99.90
59128;DHT22;44912;52.754;5.994;2023-05-10T07:59:54;13.40;99.90
59128;DHT22;44912;52.754;5.994;2023-05-10T08:02:20;13.50;99.90
59128;DHT22;44912;52.754;5.994;2023-05-10T08:04:45;13.50;99.90
59128;DHT22;44912;52.754;5.994;2023-05-10T08:07:11;13.50;99.90
59128;DHT22;44912;52.754;5.994;2023-05-10T08:09:37;13.40;99.90
59128;DHT22;44912;52.754;5.994;2023-05-10T08:12:02;13.40;99.90
59128;DHT22;44912;52.754;5.994;2023-05-10T08:14:28;13.40;99.90
59128;DHT22;44912;52.754;5.994;2023-05-10T08:16:54;13.30;99.90
59128;DHT22;44912;52.754;5.994;2023-05-10T08:19:20;13.30;99.90
59128;DHT22;44912;52.754;5.994;2023-05-10T08:21:47;13.30;99.90
59128;DHT22;44912;52.754;5.994;2023-05-10T08:24:13;13.20;99.90
59128;DHT22;44912;52.754;5.994;2023-05-10T08:26:38;13.20;99.90
59128;DHT22;44912;52.754;5.994;2023-05-10T08:29:04;13.20;99.90
59128;DHT22;44912;52.754;5.994;2023-05-10T08:31:29;13.30;99.90
59128;DHT22;44912;52.754;5.994;2023-05-10T08:33:55;13.40;99.90
59128;DHT22;44912;52.754;5.994;2023-05-10T08:36:20;13.40;99.90
59128;DHT22;44912;52.754;5.994;2023-05-10T08:38:53;13.30;99.90
59128;DHT22;44912;52.754;5.994;2023-05-10T08:41:23;13.30;99.90
59128;DHT22;44912;52.754;5.994;2023-05-10T08:43:50;13.20;99.90
59128;DHT22;44912;52.754;5.994;2023-05-10T08:46:17;13.30;99.90
59128;DHT22;44912;52.754;5.994;2023-05-10T08:48:45;13.20;99.90
59128;DHT22;44912;52.754;5.994;2023-05-10T08:51:14;13.30;99.90
59128;DHT22;44912;52.754;5.994;2023-05-10T08:53:40;13.40;99.90
59128;DHT22;44912;52.754;5.994;2023-05-10T08:56:06;13.40;99.90
59128;DHT22;44912;52.754;5.994;2023-05-10T08:58:32;13.40;99.90
59128;DHT22;44912;52.754;5.994;2023-05-10T09:00:58;13.40;99.90
59128;DHT22;44912;52.754;5.994;2023-05-10T09:03:24;13.40;99.90
59128;DHT22;44912;52.754;5.994;2023-05-10T09:05:50;13.40;99.90
59128;DHT22;44912;52.754;5.994;2023-05-10T09:08:15;13.40;99.90
59128;DHT22;44912;52.754;5.994;2023-05-10T09:10:43;13.50;99.90
59128;DHT22;44912;52.754;5.994;2023-05-10T09:13:10;13.40;99.90
59128;DHT22;44912;52.754;5.994;2023-05-10T09:15:37;13.50;99.90
59128;DHT22;44912;52.754;5.994;2023-05-10T09:18:02;13.60;99.90
59128;DHT22;44912;52.754;5.994;2023-05-10T09:20:28;13.60;99.90
59128;DHT22;44912;52.754;5.994;2023-05-10T09:22:54;13.60;99.90
59128;DHT22;44912;52.754;5.994;2023-05-10T09:25:19;13.60;99.90
59128;DHT22;44912;52.754;5.994;2023-05-10T09:27:46;13.60;99.90
59128;DHT22;44912;52.754;5.994;2023-05-10T09:30:24;13.60;99.90
59128;DHT22;44912;52.754;5.994;2023-05-10T09:32:51;13.70;99.90
59128;DHT22;44912;52.754;5.994;2023-05-10T09:35:22;13.60;99.90
59128;DHT22;44912;52.754;5.994;2023-05-10T09:37:50;13.60;99.90
59128;DHT22;44912;52.754;5.994;2023-05-10T09:40:24;13.70;99.90
59128;DHT22;44912;52.754;5.994;2023-05-10T09:43:05;13.60;99.90
59128;DHT22;44912;52.754;5.994;2023-05-10T09:45:33;13.70;99.90
59128;DHT22;44912;52.754;5.994;2023-05-10T09:48:01;13.70;99.90
59128;DHT22;44912;52.754;5.994;2023-05-10T09:50:28;13.80;99.90
59128;DHT22;44912;52.754;5.994;2023-05-10T09:53:01;13.80;99.90
59128;DHT22;44912;52.754;5.994;2023-05-10T09:55:42;13.80;99.90
59128;DHT22;44912;52.754;5.994;2023-05-10T09:58:13;13.80;99.90
59128;DHT22;44912;52.754;5.994;2023-05-10T10:00:41;13.70;99.90
59128;DHT22;44912;52.754;5.994;2023-05-10T10:03:19;13.70;99.90
59128;DHT22;44912;52.754;5.994;2023-05-10T10:05:46;13.70;99.90
59128;DHT22;44912;52.754;5.994;2023-05-10T10:08:12;13.60;99.90
59128;DHT22;44912;52.754;5.994;2023-05-10T10:10:39;13.60;99.90
59128;DHT22;44912;52.754;5.994;2023-05-10T10:13:06;13.60;99.90
59128;DHT22;44912;52.754;5.994;2023-05-10T10:15:33;13.60;99.90
59128;DHT22;44912;52.754;5.994;2023-05-10T10:17:59;13.60;99.90
59128;DHT22;44912;52.754;5.994;2023-05-10T10:20:26;13.60;99.90
59128;DHT22;44912;52.754;5.994;2023-05-10T10:22:52;13.60;99.90
59128;DHT22;44912;52.754;5.994;2023-05-10T10:25:19;13.60;99.90
59128;DHT22;44912;52.754;5.994;2023-05-10T10:28:05;13.60;99.90
59128;DHT22;44912;52.754;5.994;2023-05-10T10:30:43;13.60;99.90
59128;DHT22;44912;52.754;5.994;2023-05-10T10:33:28;13.60;99.90
59128;DHT22;44912;52.754;5.994;2023-05-10T10:35:58;13.70;99.90
59128;DHT22;44912;52.754;5.994;2023-05-10T10:38:24;13.70;99.90
59128;DHT22;44912;52.754;5.994;2023-05-10T10:41:02;13.70;99.90
59128;DHT22;44912;52.754;5.994;2023-05-10T10:43:28;13.70;99.90
59128;DHT22;44912;52.754;5.994;2023-05-10T10:46:15;13.70;99.90
59128;DHT22;44912;52.754;5.994;2023-05-10T10:48:47;13.80;99.90
59128;DHT22;44912;52.754;5.994;2023-05-10T10:51:14;13.80;99.90
59128;DHT22;44912;52.754;5.994;2023-05-10T10:53:40;13.90;99.90
59128;DHT22;44912;52.754;5.994;2023-05-10T10:56:13;14.00;99.90
59128;DHT22;44912;52.754;5.994;2023-05-10T10:58:40;14.10;99.90
59128;DHT22;44912;52.754;5.994;2023-05-10T11:01:17;14.20;99.90
59128;DHT22;44912;52.754;5.994;2023-05-10T11:06:31;14.20;99.90
59128;DHT22;44912;52.754;5.994;2023-05-10T11:08:57;14.30;99.90
59128;DHT22;44912;52.754;5.994;2023-05-10T11:11:23;14.30;99.90
59128;DHT22;44912;52.754;5.994;2023-05-10T11:13:48;14.30;99.90
59128;DHT22;44912;52.754;5.994;2023-05-10T11:16:21;14.40;99.90
59128;DHT22;44912;52.754;5.994;2023-05-10T11:21:23;14.40;99.90
59128;DHT22;44912;52.754;5.994;2023-05-10T11:23:52;14.40;99.90
59128;DHT22;44912;52.754;5.994;2023-05-10T11:26:18;14.40;99.90
59128;DHT22;44912;52.754;5.994;2023-05-10T11:28:48;14.40;99.90
59128;DHT22;44912;52.754;5.994;2023-05-10T11:31:17;14.40;99.90
59128;DHT22;44912;52.754;5.994;2023-05-10T11:33:44;14.50;99.90
59128;DHT22;44912;52.754;5.994;2023-05-10T11:36:25;14.50;99.90
59128;DHT22;44912;52.754;5.994;2023-05-10T11:38:51;14.40;99.90
59128;DHT22;44912;52.754;5.994;2023-05-10T11:41:18;14.40;99.90
59128;DHT22;44912;52.754;5.994;2023-05-10T11:43:48;14.40;99.90
59128;DHT22;44912;52.754;5.994;2023-05-10T11:46:15;14.40;99.90
59128;DHT22;44912;52.754;5.994;2023-05-10T11:48:41;14.40;99.90
59128;DHT22;44912;52.754;5.994;2023-05-10T11:51:08;14.50;99.90
59128;DHT22;44912;52.754;5.994;2023-05-10T11:53:34;14.50;99.90
59128;DHT22;44912;52.754;5.994;2023-05-10T11:56:07;14.60;99.90
59128;DHT22;44912;52.754;5.994;2023-05-10T11:58:34;14.60;99.90
59128;DHT22;44912;52.754;5.994;2023-05-10T12:01:00;14.60;99.90
59128;DHT22;44912;52.754;5.994;2023-05-10T12:03:27;14.60;99.90
59128;DHT22;44912;52.754;5.994;2023-05-10T12:05:54;14.70;99.90
59128;DHT22;44912;52.754;5.994;2023-05-10T12:08:22;14.70;99.90
59128;DHT22;44912;52.754;5.994;2023-05-10T12:10:48;14.80;99.90
59128;DHT22;44912;52.754;5.994;2023-05-10T12:13:14;14.90;99.90
59128;DHT22;44912;52.754;5.994;2023-05-10T12:15:41;15.00;99.90
59128;DHT22;44912;52.754;5.994;2023-05-10T12:18:09;14.90;99.90
59128;DHT22;44912;52.754;5.994;2023-05-10T12:20:35;15.00;99.90
59128;DHT22;44912;52.754;5.994;2023-05-10T12:23:02;15.00;99.90
59128;DHT22;44912;52.754;5.994;2023-05-10T12:25:33;15.00;99.90
59128;DHT22;44912;52.754;5.994;2023-05-10T12:28:00;15.10;99.90
59128;DHT22;44912;52.754;5.994;2023-05-10T12:30:30;15.20;99.90
59128;DHT22;44912;52.754;5.994;2023-05-10T12:33:10;15.20;99.90
59128;DHT22;44912;52.754;5.994;2023-05-10T12:35:47;15.10;99.90
59128;DHT22;44912;52.754;5.994;2023-05-10T12:38:27;15.00;99.90
59128;DHT22;44912;52.754;5.994;2023-05-10T12:41:02;15.00;99.90
59128;DHT22;44912;52.754;5.994;2023-05-10T12:43:28;15.00;99.90
59128;DHT22;44912;52.754;5.994;2023-05-10T12:45:54;15.00;99.90
59128;DHT22;44912;52.754;5.994;2023-05-10T12:48:20;15.00;99.90
59128;DHT22;44912;52.754;5.994;2023-05-10T12:50:46;15.00;99.90
59128;DHT22;44912;52.754;5.994;2023-05-10T12:53:13;15.00;99.90
59128;DHT22;44912;52.754;5.994;2023-05-10T12:55:41;15.00;99.90
59128;DHT22;44912;52.754;5.994;2023-05-10T12:58:06;14.90;99.90
59128;DHT22;44912;52.754;5.994;2023-05-10T13:00:32;14.90;99.90
59128;DHT22;44912;52.754;5.994;2023-05-10T13:02:57;14.90;99.90
59128;DHT22;44912;52.754;5.994;2023-05-10T13:05:23;14.90;99.90
59128;DHT22;44912;52.754;5.994;2023-05-10T13:07:48;14.90;99.90
59128;DHT22;44912;52.754;5.994;2023-05-10T13:10:14;15.00;99.90
59128;DHT22;44912;52.754;5.994;2023-05-10T13:12:40;15.00;99.90
59128;DHT22;44912;52.754;5.994;2023-05-10T13:15:06;15.10;99.90
59128;DHT22;44912;52.754;5.994;2023-05-10T13:17:32;15.20;99.90
59128;DHT22;44912;52.754;5.994;2023-05-10T13:19:57;15.30;99.90
59128;DHT22;44912;52.754;5.994;2023-05-10T13:22:23;15.40;99.90
59128;DHT22;44912;52.754;5.994;2023-05-10T13:24:48;15.40;99.90
59128;DHT22;44912;52.754;5.994;2023-05-10T13:27:14;15.50;99.90
59128;DHT22;44912;52.754;5.994;2023-05-10T13:29:39;15.60;99.90
59128;DHT22;44912;52.754;5.994;2023-05-10T13:32:05;15.60;99.90
59128;DHT22;44912;52.754;5.994;2023-05-10T13:34:30;15.60;99.90
59128;DHT22;44912;52.754;5.994;2023-05-10T13:36:56;15.70;99.90
59128;DHT22;44912;52.754;5.994;2023-05-10T13:39:22;15.70;99.90
59128;DHT22;44912;52.754;5.994;2023-05-10T13:41:48;15.70;99.90
59128;DHT22;44912;52.754;5.994;2023-05-10T13:44:14;15.70;99.90
59128;DHT22;44912;52.754;5.994;2023-05-10T13:46:41;15.80;99.90
59128;DHT22;44912;52.754;5.994;2023-05-10T13:49:08;15.80;99.90
59128;DHT22;44912;52.754;5.994;2023-05-10T13:51:34;15.80;99.90
59128;DHT22;44912;52.754;5.994;2023-05-10T13:53:59;15.90;99.90
59128;DHT22;44912;52.754;5.994;2023-05-10T13:56:25;15.70;99.90
59128;DHT22;44912;52.754;5.994;2023-05-10T13:58:51;15.60;99.90
59128;DHT22;44912;52.754;5.994;2023-05-10T14:01:16;15.60;99.90
59128;DHT22;44912;52.754;5.994;2023-05-10T14:03:42;15.50;99.90
59128;DHT22;44912;52.754;5.994;2023-05-10T14:06:08;15.40;99.90
59128;DHT22;44912;52.754;5.994;2023-05-10T14:08:34;15.40;99.90
59128;DHT22;44912;52.754;5.994;2023-05-10T14:11:00;15.30;99.90
59128;DHT22;44912;52.754;5.994;2023-05-10T14:13:26;15.30;99.90
59128;DHT22;44912;52.754;5.994;2023-05-10T14:15:53;15.30;99.90
59128;DHT22;44912;52.754;5.994;2023-05-10T14:18:19;15.20;99.90
59128;DHT22;44912;52.754;5.994;2023-05-10T14:20:44;15.30;99.90
59128;DHT22;44912;52.754;5.994;2023-05-10T14:23:10;15.30;99.90
59128;DHT22;44912;52.754;5.994;2023-05-10T14:25:36;15.30;99.90
59128;DHT22;44912;52.754;5.994;2023-05-10T14:28:01;15.30;99.90
59128;DHT22;44912;52.754;5.994;2023-05-10T14:30:27;15.30;99.90
59128;DHT22;44912;52.754;5.994;2023-05-10T14:32:52;15.40;99.90
59128;DHT22;44912;52.754;5.994;2023-05-10T14:35:19;15.40;99.90
59128;DHT22;44912;52.754;5.994;2023-05-10T14:37:45;15.40;99.90
59128;DHT22;44912;52.754;5.994;2023-05-10T14:40:11;15.40;99.90
59128;DHT22;44912;52.754;5.994;2023-05-10T14:42:37;15.50;99.90
59128;DHT22;44912;52.754;5.994;2023-05-10T14:45:03;15.50;99.90
59128;DHT22;44912;52.754;5.994;2023-05-10T14:47:29;15.50;99.90
59128;DHT22;44912;52.754;5.994;2023-05-10T14:49:55;15.50;99.90
59128;DHT22;44912;52.754;5.994;2023-05-10T14:52:21;15.50;99.90
59128;DHT22;44912;52.754;5.994;2023-05-10T14:54:46;15.50;99.90
59128;DHT22;44912;52.754;5.994;2023-05-10T14:57:12;15.50;99.90
59128;DHT22;44912;52.754;5.994;2023-05-10T14:59:38;15.50;99.90
59128;DHT22;44912;52.754;5.994;2023-05-10T15:02:03;15.50;99.90
59128;DHT22;44912;52.754;5.994;2023-05-10T15:04:29;15.50;99.90
59128;DHT22;44912;52.754;5.994;2023-05-10T15:06:55;15.50;99.90
59128;DHT22;44912;52.754;5.994;2023-05-10T15:09:25;15.50;99.90
59128;DHT22;44912;52.754;5.994;2023-05-10T15:11:50;15.50;99.90
59128;DHT22;44912;52.754;5.994;2023-05-10T15:14:16;15.50;99.90
59128;DHT22;44912;52.754;5.994;2023-05-10T15:16:41;15.60;99.90
59128;DHT22;44912;52.754;5.994;2023-05-10T15:19:07;15.60;99.90
59128;DHT22;44912;52.754;5.994;2023-05-10T15:21:33;15.70;99.90
59128;DHT22;44912;52.754;5.994;2023-05-10T15:24:05;15.70;99.90
59128;DHT22;44912;52.754;5.994;2023-05-10T15:26:30;15.70;99.90
59128;DHT22;44912;52.754;5.994;2023-05-10T15:28:56;15.80;99.90
59128;DHT22;44912;52.754;5.994;2023-05-10T15:31:22;15.70;99.90
59128;DHT22;44912;52.754;5.994;2023-05-10T15:33:47;15.70;99.90
59128;DHT22;44912;52.754;5.994;2023-05-10T15:36:13;15.60;99.90
59128;DHT22;44912;52.754;5.994;2023-05-10T15:38:38;15.60;99.90
59128;DHT22;44912;52.754;5.994;2023-05-10T15:41:04;15.50;99.90
59128;DHT22;44912;52.754;5.994;2023-05-10T15:43:30;15.60;99.90
59128;DHT22;44912;52.754;5.994;2023-05-10T15:45:55;15.50;99.90
59128;DHT22;44912;52.754;5.994;2023-05-10T15:48:21;15.40;99.90